Time;durP1;ratioP1;P1;durP2;ratioP2;P2;SDS_P1;SDS_P2;PMS_P1;PMS_P2;Temp;Humidity;BMP_temperature;BMP_pressure;BME280_temperature;BME280_humidity;BME280_pressure;Samples;Min_cycle;Max_cycle;Signal;HPM_P1;HPM_P2
2022/11/27 00:00:53;;;;;;;0.10;0.10;;;;;;;2.49;100.00;97606.59;4977069;28;20237;-73
2022/11/27 00:03:40;;;;;;;0.10;0.10;;;;;;;2.49;100.00;97593.41;4964135;28;20045;-77
2022/11/27 00:06:28;;;;;;;0.10;0.10;;;;;;;2.52;100.00;97586.94;4961642;28;20080;-71
2022/11/27 00:09:15;;;;;;;0.13;0.13;;;;;;;2.67;100.00;97593.16;4974777;28;20233;-71
2022/11/27 00:12:02;;;;;;;0.17;0.17;;;;;;;2.65;100.00;97583.75;4976288;28;20046;-73
2022/11/27 00:14:48;;;;;;;0.20;0.20;;;;;;;2.47;100.00;97570.75;4966668;28;20034;-75
2022/11/27 00:17:34;;;;;;;0.10;0.10;;;;;;;2.51;100.00;97582.66;4970725;28;20207;-73
2022/11/27 00:20:20;;;;;;;0.10;0.10;;;;;;;2.43;100.00;97583.50;4962735;28;20431;-75
2022/11/27 00:23:06;;;;;;;0.10;0.10;;;;;;;2.40;100.00;97591.75;4974204;28;20514;-72
2022/11/27 00:25:52;;;;;;;0.17;0.17;;;;;;;2.42;100.00;97579.22;4975258;28;20042;-72
2022/11/27 00:28:38;;;;;;;0.10;0.10;;;;;;;2.50;100.00;97575.72;4968541;28;20755;-74
2022/11/27 00:31:36;;;;;;;0.10;0.10;;;;;;;2.48;100.00;97581.16;4973334;28;20807;-74
2022/11/27 00:34:22;;;;;;;0.20;0.20;;;;;;;2.34;100.00;97581.88;4966941;28;20506;-74
2022/11/27 00:37:11;;;;;;;0.10;0.10;;;;;;;2.43;100.00;97574.75;4972221;28;20042;-76
2022/11/27 00:39:56;;;;;;;0.10;0.10;;;;;;;2.37;100.00;97563.03;4963360;28;20223;-74
2022/11/27 00:42:42;;;;;;;0.10;0.10;;;;;;;2.35;100.00;97575.59;4974714;28;20396;-72
2022/11/27 00:45:28;;;;;;;0.10;0.10;;;;;;;2.39;100.00;97584.81;4975439;28;20041;-72
2022/11/27 00:48:14;;;;;;;0.13;0.13;;;;;;;2.31;100.00;97570.81;4975033;28;20325;-75
2022/11/27 00:51:06;;;;;;;0.10;0.10;;;;;;;2.23;100.00;97569.00;4973669;28;20038;-74
2022/11/27 00:53:53;;;;;;;0.10;0.10;;;;;;;2.16;100.00;97563.56;4974503;28;20725;-74
2022/11/27 00:56:39;;;;;;;0.10;0.10;;;;;;;2.17;100.00;97567.84;4974277;28;20572;-73
2022/11/27 00:59:25;;;;;;;0.10;0.10;;;;;;;2.18;100.00;97553.69;4972905;28;20103;-74
2022/11/27 01:02:11;;;;;;;0.10;0.10;;;;;;;2.17;100.00;97544.09;4973973;28;20728;-74
2022/11/27 01:04:57;;;;;;;0.13;0.13;;;;;;;2.07;100.00;97548.75;4973595;28;20046;-73
2022/11/27 01:07:45;;;;;;;0.20;0.20;;;;;;;2.13;100.00;97547.25;4975267;28;20683;-72
2022/11/27 01:10:31;;;;;;;0.20;0.20;;;;;;;2.15;100.00;97546.09;4966460;28;20573;-74
2022/11/27 01:13:17;;;;;;;0.10;0.10;;;;;;;2.20;100.00;97548.22;4972604;28;20038;-75
2022/11/27 01:16:09;;;;;;;0.17;0.17;;;;;;;2.22;100.00;97548.88;4965524;28;20038;-75
2022/11/27 01:18:57;;;;;;;0.10;0.10;;;;;;;2.14;100.00;97538.34;4963896;28;20054;-72
2022/11/27 01:21:43;;;;;;;0.10;0.10;;;;;;;2.11;100.00;97544.78;4973287;28;20429;-73
2022/11/27 01:24:29;;;;;;;0.17;0.17;;;;;;;2.14;100.00;97562.94;4977633;28;20068;-74
2022/11/27 01:27:15;;;;;;;0.10;0.10;;;;;;;2.11;100.00;97557.16;4971879;28;20178;-71
2022/11/27 01:30:03;;;;;;;0.10;0.10;;;;;;;2.11;100.00;97565.91;4975570;28;20428;-74
2022/11/27 01:32:49;;;;;;;0.13;0.13;;;;;;;2.11;100.00;97565.91;4972315;28;20358;-75
2022/11/27 01:35:35;;;;;;;0.10;0.10;;;;;;;2.09;100.00;97561.78;4974447;28;20639;-75
2022/11/27 01:38:22;;;;;;;0.10;0.10;;;;;;;2.10;100.00;97551.06;4965211;28;20061;-75
2022/11/27 01:41:22;;;;;;;0.20;0.20;;;;;;;2.11;100.00;97543.97;4980822;28;20069;-73
2022/11/27 01:44:23;;;;;;;0.10;0.10;;;;;;;2.07;100.00;97555.84;4979498;28;20293;-72
2022/11/27 01:47:14;;;;;;;0.17;0.17;;;;;;;2.02;100.00;97551.06;4975558;28;20265;-75
2022/11/27 01:50:09;;;;;;;0.17;0.17;;;;;;;1.97;100.00;97547.28;4974965;28;20043;-71
2022/11/27 01:53:05;;;;;;;0.20;0.20;;;;;;;1.92;100.00;97531.94;4976230;28;20121;-75
2022/11/27 01:55:58;;;;;;;0.10;0.10;;;;;;;1.92;100.00;97524.84;4971531;28;20042;-73
2022/11/27 01:58:43;;;;;;;0.13;0.13;;;;;;;2.00;100.00;97533.75;4975979;28;20053;-76
2022/11/27 02:01:29;;;;;;;0.10;0.10;;;;;;;1.94;100.00;97528.13;4969757;28;20623;-75
2022/11/27 02:04:16;;;;;;;0.20;0.20;;;;;;;1.90;100.00;97529.47;4977450;28;20037;-74
2022/11/27 02:07:02;;;;;;;0.10;0.10;;;;;;;1.81;100.00;97519.09;4976535;28;20094;-77
2022/11/27 02:09:49;;;;;;;0.10;0.10;;;;;;;1.86;100.00;97514.13;4978332;28;20034;-75
2022/11/27 02:12:46;;;;;;;0.10;0.10;;;;;;;1.97;100.00;97520.88;4981907;28;20100;-72
2022/11/27 02:15:53;;;;;;;0.10;0.10;;;;;;;1.97;100.00;97531.44;4981189;28;20042;-74
2022/11/27 02:19:15;;;;;;;0.20;0.20;;;;;;;1.97;100.00;97521.72;4978110;28;20188;-75
2022/11/27 02:22:43;;;;;;;0.10;0.10;;;;;;;1.89;100.00;97525.19;4963975;28;20042;-72
2022/11/27 02:26:01;;;;;;;0.20;0.20;;;;;;;1.91;100.00;97523.19;4971142;28;20060;-73
2022/11/27 02:29:11;;;;;;;0.20;0.20;;;;;;;1.83;100.00;97507.38;4977868;28;20034;-75
2022/11/27 02:32:22;;;;;;;0.13;0.13;;;;;;;1.86;100.00;97504.38;4979821;28;20480;-75
2022/11/27 02:35:45;;;;;;;0.10;0.10;;;;;;;1.97;100.00;97494.50;4968172;28;20160;-71
2022/11/27 02:38:38;;;;;;;0.10;0.10;;;;;;;1.98;100.00;97501.41;4973968;28;20133;-74
2022/11/27 02:41:36;;;;;;;0.20;0.20;;;;;;;1.98;100.00;97498.78;4979147;28;20050;-73
2022/11/27 02:44:25;;;;;;;0.10;0.10;;;;;;;1.95;100.00;97511.31;4979750;28;20042;-76
2022/11/27 02:47:13;;;;;;;0.10;0.10;;;;;;;2.00;100.00;97499.41;4975812;28;20653;-74
2022/11/27 02:50:02;;;;;;;0.20;0.20;;;;;;;2.03;100.00;97496.47;4977633;28;20530;-72
2022/11/27 02:52:52;;;;;;;0.10;0.10;;;;;;;1.99;100.00;97503.06;4965395;28;20523;-70
2022/11/27 02:55:39;;;;;;;0.22;0.22;;;;;;;1.91;100.00;97490.69;4980650;28;20046;-75
2022/11/27 02:58:27;;;;;;;0.10;0.10;;;;;;;1.98;100.00;97490.84;4976818;28;20053;-72
2022/11/27 03:01:17;;;;;;;0.10;0.10;;;;;;;1.97;100.00;97481.28;4967016;28;20732;-72
2022/11/27 03:04:08;;;;;;;0.20;0.20;;;;;;;1.93;100.00;97470.22;4978980;28;20552;-74
2022/11/27 03:06:58;;;;;;;0.20;0.20;;;;;;;1.91;100.00;97483.59;4947618;28;20504;-73
2022/11/27 03:09:48;;;;;;;0.10;0.10;;;;;;;1.97;100.00;97489.22;4939509;28;20038;-72
2022/11/27 03:12:34;;;;;;;0.10;0.10;;;;;;;1.93;100.00;97481.63;4937758;28;20431;-72
2022/11/27 03:15:22;;;;;;;0.20;0.20;;;;;;;1.84;100.00;97481.81;4940728;28;20854;-72
2022/11/27 03:18:23;;;;;;;0.10;0.10;;;;;;;1.84;100.00;97479.16;4938444;28;20138;-72
2022/11/27 03:21:27;;;;;;;0.20;0.20;;;;;;;1.81;100.00;97464.50;4938958;28;20046;-73
2022/11/27 03:24:14;;;;;;;0.10;0.10;;;;;;;1.72;100.00;97444.41;4925897;28;20039;-73
2022/11/27 03:27:01;;;;;;;0.15;0.15;;;;;;;1.75;100.00;97449.34;4939558;28;20506;-73
2022/11/27 03:29:51;;;;;;;0.10;0.10;;;;;;;1.69;100.00;97444.72;4940600;28;20047;-73
2022/11/27 03:32:39;;;;;;;0.10;0.10;;;;;;;1.69;100.00;97431.53;4924916;28;20050;-70
2022/11/27 03:35:26;;;;;;;0.10;0.10;;;;;;;1.80;100.00;97448.84;4924479;28;20356;-70
2022/11/27 03:38:11;;;;;;;0.10;0.10;;;;;;;1.73;100.00;97447.88;4925696;28;20091;-73
2022/11/27 03:41:18;;;;;;;0.10;0.10;;;;;;;1.76;100.00;97437.78;4939308;28;20043;-71
2022/11/27 03:44:22;;;;;;;0.13;0.13;;;;;;;1.77;100.00;97433.31;4929807;28;20563;-70
2022/11/27 03:47:41;;;;;;;0.10;0.10;;;;;;;1.80;100.00;97454.94;4938205;28;20082;-70
2022/11/27 03:50:53;;;;;;;0.10;0.10;;;;;;;1.77;100.00;97452.63;4936732;28;20779;-72
2022/11/27 03:53:58;;;;;;;0.10;0.10;;;;;;;1.84;100.00;97436.94;4909312;28;20854;-72
2022/11/27 03:56:55;;;;;;;0.10;0.10;;;;;;;1.79;100.00;97426.91;4927247;28;20046;-73
2022/11/27 03:59:44;;;;;;;0.10;0.10;;;;;;;1.81;100.00;97424.91;4938226;28;20499;-72
2022/11/27 04:02:40;;;;;;;0.20;0.20;;;;;;;1.89;100.00;97427.53;4938245;28;20057;-73
2022/11/27 04:05:26;;;;;;;0.20;0.20;;;;;;;1.84;100.00;97427.19;4938200;28;20122;-73
2022/11/27 04:08:11;;;;;;;0.10;0.10;;;;;;;1.83;100.00;97407.09;4936210;28;20038;-74
2022/11/27 04:10:57;;;;;;;0.10;0.10;;;;;;;1.89;100.00;97411.69;4940744;28;20039;-71
2022/11/27 04:13:44;;;;;;;0.20;0.20;;;;;;;1.95;100.00;97408.38;4937584;28;20058;-70
2022/11/27 04:16:30;;;;;;;0.10;0.10;;;;;;;1.98;100.00;97412.47;4940938;28;20599;-74
2022/11/27 04:19:15;;;;;;;0.20;0.20;;;;;;;2.07;100.00;97407.97;4922081;28;20074;-73
2022/11/27 04:22:01;;;;;;;0.20;0.20;;;;;;;2.04;100.00;97403.88;4941208;28;20306;-73
2022/11/27 04:24:48;;;;;;;0.10;0.10;;;;;;;2.07;100.00;97407.97;4928906;28;20039;-72
2022/11/27 04:27:33;;;;;;;0.10;0.10;;;;;;;2.03;100.00;97396.97;4937039;28;20043;-71
2022/11/27 04:30:19;;;;;;;0.20;0.20;;;;;;;2.10;100.00;97412.91;4936725;28;20043;-74
2022/11/27 04:33:05;;;;;;;0.10;0.10;;;;;;;2.13;100.00;97410.75;4938549;28;20529;-72
2022/11/27 04:35:51;;;;;;;0.10;0.10;;;;;;;2.20;100.00;97413.53;4926707;28;20043;-73
2022/11/27 04:38:37;;;;;;;0.10;0.10;;;;;;;2.29;100.00;97424.88;4934846;28;20498;-72
2022/11/27 04:41:23;;;;;;;0.20;0.20;;;;;;;2.21;100.00;97420.47;4938182;28;20393;-74
2022/11/27 04:44:11;;;;;;;0.10;0.10;;;;;;;2.32;100.00;97419.25;4937818;28;20633;-73
2022/11/27 04:46:59;;;;;;;0.10;0.10;;;;;;;2.29;100.00;97414.31;4937525;28;20514;-74
2022/11/27 04:49:45;;;;;;;0.20;0.20;;;;;;;2.30;100.00;97408.84;4935996;28;20722;-73
2022/11/27 04:52:30;;;;;;;0.10;0.10;;;;;;;2.35;100.00;97406.53;4927274;28;20080;-74
2022/11/27 04:55:16;;;;;;;0.17;0.17;;;;;;;2.38;100.00;97405.34;4937086;28;20233;-74
2022/11/27 04:58:02;;;;;;;0.10;0.10;;;;;;;2.43;100.00;97405.66;4939020;28;20074;-72
2022/11/27 05:00:48;;;;;;;0.10;0.10;;;;;;;2.42;100.00;97415.41;4939187;28;20666;-71
2022/11/27 05:03:37;;;;;;;0.10;0.10;;;;;;;2.47;100.00;97405.13;4936657;28;20325;-74
2022/11/27 05:06:22;;;;;;;0.10;0.10;;;;;;;2.54;100.00;97409.72;4938797;28;20146;-70
2022/11/27 05:09:08;;;;;;;0.20;0.20;;;;;;;2.61;100.00;97408.03;4923976;28;20339;-71
2022/11/27 05:11:54;;;;;;;0.20;0.20;;;;;;;2.55;100.00;97398.97;4937222;28;20306;-71
2022/11/27 05:14:40;;;;;;;0.20;0.20;;;;;;;2.61;100.00;97397.44;4936643;28;20437;-73
2022/11/27 05:17:26;;;;;;;0.13;0.13;;;;;;;2.67;100.00;97405.50;4924161;28;20076;-74
2022/11/27 05:20:12;;;;;;;0.17;0.17;;;;;;;2.68;100.00;97390.47;4928508;28;20047;-71
2022/11/27 05:22:58;;;;;;;0.10;0.10;;;;;;;2.77;100.00;97392.06;4936882;28;20505;-72
2022/11/27 05:25:43;;;;;;;0.10;0.10;;;;;;;2.77;100.00;97394.69;4939168;28;20372;-70
2022/11/27 05:28:29;;;;;;;0.20;0.20;;;;;;;2.71;100.00;97380.34;4926298;28;20047;-73
2022/11/27 05:31:15;;;;;;;0.13;0.13;;;;;;;2.71;100.00;97382.19;4927665;28;20039;-73
2022/11/27 05:34:02;;;;;;;0.10;0.10;;;;;;;2.69;100.00;97373.59;4937929;28;20110;-73
2022/11/27 05:36:47;;;;;;;0.20;0.20;;;;;;;2.72;100.00;97366.16;4937390;28;20330;-73
2022/11/27 05:39:33;;;;;;;0.10;0.10;;;;;;;2.67;100.00;97362.41;4937410;28;20459;-73
2022/11/27 05:42:19;;;;;;;0.10;0.10;;;;;;;2.72;100.00;97357.38;4936266;28;20808;-75
2022/11/27 05:45:05;;;;;;;0.10;0.10;;;;;;;2.72;100.00;97350.31;4940751;28;20492;-71
2022/11/27 05:47:51;;;;;;;0.10;0.10;;;;;;;2.85;100.00;97360.25;4938620;28;20102;-72
2022/11/27 05:50:37;;;;;;;0.10;0.10;;;;;;;2.82;100.00;97352.69;4939841;28;20400;-73
2022/11/27 05:53:24;;;;;;;0.13;0.13;;;;;;;2.72;100.00;97336.25;4936061;28;20559;-71
2022/11/27 05:56:13;;;;;;;0.10;0.10;;;;;;;2.77;100.00;97344.47;4938757;28;20163;-75
2022/11/27 05:58:59;;;;;;;0.10;0.10;;;;;;;2.79;100.00;97337.19;4937493;28;20457;-75
2022/11/27 06:01:45;;;;;;;0.10;0.10;;;;;;;2.82;100.00;97336.84;4940270;28;20043;-75
2022/11/27 06:04:34;;;;;;;0.20;0.20;;;;;;;2.87;100.00;97334.47;4936730;28;20348;-73
2022/11/27 06:07:23;;;;;;;0.20;0.20;;;;;;;2.81;100.00;97335.19;4952037;28;20067;-74
2022/11/27 06:10:09;;;;;;;0.20;0.20;;;;;;;2.75;100.00;97335.91;4957342;28;20396;-73
2022/11/27 06:12:55;;;;;;;0.10;0.10;;;;;;;2.88;100.00;97327.34;4955642;28;20452;-73
2022/11/27 06:15:41;;;;;;;0.20;0.20;;;;;;;2.83;100.00;97333.19;4943032;28;20129;-74
2022/11/27 06:18:27;;;;;;;0.10;0.10;;;;;;;2.78;100.00;97335.53;4954310;28;20670;-71
2022/11/27 06:21:14;;;;;;;0.20;0.20;;;;;;;2.79;100.00;97331.88;4958202;28;20051;-70
2022/11/27 06:24:00;;;;;;;0.10;0.10;;;;;;;2.77;100.00;97331.25;4946599;28;20443;-74
2022/11/27 06:26:45;;;;;;;0.20;0.20;;;;;;;2.76;100.00;97322.50;4960884;28;20046;-74
2022/11/27 06:29:31;;;;;;;0.20;0.20;;;;;;;2.76;100.00;97306.66;4961867;28;20038;-73
2022/11/27 06:32:17;;;;;;;0.20;0.20;;;;;;;2.71;100.00;97314.28;4959397;28;20125;-74
2022/11/27 06:35:03;;;;;;;0.10;0.10;;;;;;;2.66;100.00;97305.25;4961357;28;20121;-75
2022/11/27 06:37:49;;;;;;;0.15;0.15;;;;;;;2.73;100.00;97312.31;4958268;28;20142;-73
2022/11/27 06:40:35;;;;;;;0.10;0.10;;;;;;;2.63;100.00;97310.88;4945461;28;20061;-75
2022/11/27 06:43:21;;;;;;;0.20;0.20;;;;;;;2.63;100.00;97306.41;4955274;28;20070;-75
2022/11/27 06:46:11;;;;;;;0.20;0.20;;;;;;;2.63;100.00;97310.88;4960329;28;20054;-75
2022/11/27 06:49:15;;;;;;;0.20;0.20;;;;;;;2.55;100.00;97300.38;4957856;28;20039;-75
2022/11/27 06:52:03;;;;;;;0.10;0.10;;;;;;;2.57;100.00;97298.38;4949904;28;20434;-74
2022/11/27 06:54:48;;;;;;;0.10;0.10;;;;;;;2.51;100.00;97292.00;4945583;28;20072;-73
2022/11/27 06:57:34;;;;;;;0.17;0.17;;;;;;;2.46;100.00;97295.16;4958964;28;20042;-74
2022/11/27 07:00:20;;;;;;;0.10;0.10;;;;;;;2.50;100.00;97298.28;4954627;28;20047;-75
2022/11/27 07:03:06;;;;;;;0.10;0.10;;;;;;;2.50;100.00;97291.19;4957989;28;20578;-73
2022/11/27 07:05:52;;;;;;;0.10;0.10;;;;;;;2.52;100.00;97288.34;4958560;28;20125;-73
2022/11/27 07:08:38;;;;;;;0.10;0.10;;;;;;;2.42;100.00;97279.84;4948210;28;20562;-75
2022/11/27 07:11:26;;;;;;;0.20;0.20;;;;;;;2.43;100.00;97278.84;4959827;28;20345;-71
2022/11/27 07:14:12;;;;;;;0.20;0.20;;;;;;;2.53;100.00;97262.75;4944202;28;20050;-73
2022/11/27 07:16:58;;;;;;;0.10;0.10;;;;;;;2.49;100.00;97265.75;4950419;28;20634;-72
2022/11/27 07:19:43;;;;;;;0.20;0.20;;;;;;;2.57;100.00;97275.44;4957787;28;20089;-72
2022/11/27 07:22:31;;;;;;;0.15;0.15;;;;;;;2.57;100.00;97274.59;4954441;28;20332;-73
2022/11/27 07:25:17;;;;;;;0.20;0.20;;;;;;;2.62;100.00;97273.06;4957456;28;20050;-75
2022/11/27 07:28:03;;;;;;;0.10;0.10;;;;;;;2.65;100.00;97262.16;4958500;28;20044;-71
2022/11/27 07:30:57;;;;;;;0.10;0.10;;;;;;;2.66;100.00;97257.69;4604315;28;10000036;-72
2022/11/27 07:33:43;;;;;;;0.20;0.20;;;;;;;2.71;100.00;97261.41;4952349;28;20496;-72
2022/11/27 07:36:29;;;;;;;0.10;0.10;;;;;;;2.74;100.00;97257.63;4613642;28;10000631;-72
2022/11/27 07:39:16;;;;;;;0.20;0.20;;;;;;;2.75;100.00;97269.81;4955459;28;20117;-74
2022/11/27 07:42:02;;;;;;;0.17;0.17;;;;;;;2.76;100.00;97269.63;4956826;28;20050;-73
2022/11/27 07:44:48;;;;;;;0.20;0.20;;;;;;;2.87;100.00;97264.91;4956504;28;20440;-74
2022/11/27 07:47:33;;;;;;;0.10;0.10;;;;;;;2.92;100.00;97262.56;4956773;28;20042;-76
2022/11/27 07:50:19;;;;;;;0.20;0.20;;;;;;;2.86;100.00;97261.44;4946303;28;20993;-75
2022/11/27 07:53:05;;;;;;;0.10;0.10;;;;;;;2.88;100.00;97264.75;4953869;28;20474;-73
2022/11/27 07:55:51;;;;;;;0.20;0.20;;;;;;;2.92;100.00;97266.00;4949940;28;20397;-70
2022/11/27 07:58:37;;;;;;;0.20;0.20;;;;;;;3.07;100.00;97252.81;4950582;28;20361;-74
2022/11/27 08:01:23;;;;;;;0.20;0.20;;;;;;;2.97;100.00;97250.44;4956381;28;20153;-76
2022/11/27 08:04:12;;;;;;;0.20;0.20;;;;;;;3.06;100.00;97238.78;4954840;28;20645;-73
2022/11/27 08:06:58;;;;;;;0.20;0.20;;;;;;;3.17;100.00;97234.84;4956315;28;20081;-73
2022/11/27 08:09:43;;;;;;;0.10;0.10;;;;;;;3.06;100.00;97246.69;4954614;28;20097;-76
2022/11/27 08:12:29;;;;;;;0.20;0.20;;;;;;;3.20;100.00;97238.97;4942957;28;20245;-72
2022/11/27 08:15:15;;;;;;;0.20;0.20;;;;;;;3.13;100.00;97248.63;4955629;28;21049;-72
2022/11/27 08:18:01;;;;;;;0.10;0.10;;;;;;;3.11;100.00;97253.25;4959516;28;20034;-76
2022/11/27 08:20:47;;;;;;;0.10;0.10;;;;;;;3.07;100.00;97244.88;4955272;28;20054;-74
2022/11/27 08:23:33;;;;;;;0.17;0.17;;;;;;;3.14;100.00;97250.25;4956610;28;20072;-75
2022/11/27 08:26:20;;;;;;;0.20;0.20;;;;;;;3.25;100.00;97231.28;4947581;28;20077;-72
2022/11/27 08:29:06;;;;;;;0.10;0.10;;;;;;;3.17;100.00;97239.31;4955803;28;20046;-74
2022/11/27 08:31:52;;;;;;;0.10;0.10;;;;;;;2.98;100.00;97235.41;4955468;28;20050;-75
2022/11/27 08:34:38;;;;;;;0.10;0.10;;;;;;;2.97;100.00;97237.22;4955254;28;20045;-77
2022/11/27 08:37:26;;;;;;;0.10;0.10;;;;;;;2.96;100.00;97232.13;4956019;28;20042;-73
2022/11/27 08:40:12;;;;;;;0.20;0.20;;;;;;;2.93;100.00;97238.56;4948161;28;20441;-73
2022/11/27 08:42:58;;;;;;;0.20;0.20;;;;;;;2.93;100.00;97237.75;4942850;28;20101;-74
2022/11/27 08:45:44;;;;;;;0.10;0.10;;;;;;;2.99;100.00;97235.22;4954784;28;20050;-75
2022/11/27 08:48:29;;;;;;;0.15;0.15;;;;;;;3.01;100.00;97229.72;4952160;28;20046;-72
2022/11/27 08:51:15;;;;;;;0.20;0.20;;;;;;;3.09;100.00;97232.28;4956273;28;20043;-72
2022/11/27 08:54:02;;;;;;;0.20;0.20;;;;;;;3.28;100.00;97221.16;4955402;28;20042;-74
2022/11/27 08:56:50;;;;;;;0.20;0.20;;;;;;;3.60;100.00;97209.34;4955667;28;20039;-77
2022/11/27 08:59:36;;;;;;;0.20;0.20;;;;;;;3.87;100.00;97209.63;4946146;28;20534;-75
2022/11/27 09:02:22;;;;;;;0.10;0.10;;;;;;;3.86;100.00;97207.97;4941880;28;20178;-75
2022/11/27 09:05:08;;;;;;;0.20;0.20;;;;;;;4.06;100.00;97198.41;4953752;28;20352;-75
2022/11/27 09:07:54;;;;;;;0.20;0.20;;;;;;;4.29;100.00;97192.94;4955327;28;20075;-73
2022/11/27 09:10:43;;;;;;;0.20;0.20;;;;;;;4.45;100.00;97194.47;4953317;28;20038;-77
2022/11/27 09:13:29;;;;;;;0.10;0.10;;;;;;;4.03;100.00;97184.72;4955173;28;20046;-74
2022/11/27 09:16:17;;;;;;;0.10;0.10;;;;;;;3.90;100.00;97183.59;4957828;28;20054;-72
2022/11/27 09:19:03;;;;;;;0.10;0.10;;;;;;;3.88;100.00;97182.13;4942071;28;20241;-71
2022/11/27 09:21:49;;;;;;;0.20;0.20;;;;;;;3.87;100.00;97185.78;4945515;28;20045;-75
2022/11/27 09:24:36;;;;;;;0.10;0.10;;;;;;;4.03;100.00;97185.53;4953477;28;20057;-75
2022/11/27 09:27:22;;;;;;;0.20;0.20;;;;;;;4.55;100.00;97176.41;4949916;28;20296;-76
2022/11/27 09:30:08;;;;;;;0.20;0.20;;;;;;;4.45;100.00;97170.63;4956646;28;20411;-72
2022/11/27 09:32:55;;;;;;;0.10;0.10;;;;;;;4.58;100.00;97170.72;4955787;28;20051;-71
2022/11/27 09:35:41;;;;;;;0.17;0.17;;;;;;;4.76;100.00;97170.25;4942918;28;20496;-74
2022/11/27 09:38:26;;;;;;;0.20;0.20;;;;;;;4.67;100.00;97158.97;4956039;28;20046;-75
2022/11/27 09:41:22;;;;;;;0.20;0.20;;;;;;;4.62;100.00;97150.75;4958368;28;20049;-75
2022/11/27 09:44:38;;;;;;;0.20;0.20;;;;;;;4.65;100.00;97146.91;4908128;28;20066;-73
2022/11/27 09:47:41;;;;;;;0.10;0.10;;;;;;;4.39;100.00;97144.91;4946963;28;20337;-75
2022/11/27 09:50:31;;;;;;;0.10;0.10;;;;;;;4.34;100.00;97142.00;4957877;28;20462;-74
2022/11/27 09:53:25;;;;;;;0.17;0.17;;;;;;;4.13;100.00;97140.22;4961512;28;20038;-75
2022/11/27 09:56:15;;;;;;;0.13;0.13;;;;;;;4.00;100.00;97137.44;4960925;28;20035;-76
2022/11/27 09:59:01;;;;;;;0.13;0.13;;;;;;;4.03;100.00;97145.81;4960881;28;20047;-75
2022/11/27 10:01:47;;;;;;;0.20;0.20;;;;;;;4.05;100.00;97125.28;4955674;28;20054;-74
2022/11/27 10:04:33;;;;;;;0.17;0.17;;;;;;;4.13;100.00;97124.31;4963544;28;20034;-75
2022/11/27 10:07:22;;;;;;;0.15;0.15;;;;;;;4.34;100.00;97131.38;4960908;28;20058;-75
2022/11/27 10:10:50;;;;;;;0.10;0.10;;;;;;;4.28;100.00;97130.34;4964297;28;20350;-74
2022/11/27 10:14:06;;;;;;;0.10;0.10;;;;;;;4.46;100.00;97143.13;4961619;28;20461;-75
2022/11/27 10:17:04;;;;;;;0.20;0.20;;;;;;;4.53;100.00;97130.72;4963483;28;20125;-70
2022/11/27 10:19:52;;;;;;;0.10;0.10;;;;;;;4.43;100.00;97136.34;4962785;28;20146;-74
2022/11/27 10:22:49;;;;;;;0.20;0.20;;;;;;;4.49;100.00;97116.22;4938577;28;20268;-73
2022/11/27 10:25:50;;;;;;;0.20;0.20;;;;;;;4.55;100.00;97127.88;4961399;28;20494;-71
2022/11/27 10:28:59;;;;;;;0.10;0.10;;;;;;;4.57;100.00;97118.72;4949071;28;20997;-73
2022/11/27 10:31:52;;;;;;;0.20;0.20;;;;;;;4.47;100.00;97108.47;4944597;28;20081;-72
2022/11/27 10:34:51;;;;;;;0.20;0.20;;;;;;;4.65;100.00;97097.34;4948965;28;20061;-75
2022/11/27 10:37:42;;;;;;;0.20;0.20;;;;;;;4.70;100.00;97100.25;4961431;28;20057;-73
2022/11/27 10:40:47;;;;;;;0.20;0.20;;;;;;;4.86;100.00;97083.19;4958753;28;20046;-75
2022/11/27 10:43:33;;;;;;;0.20;0.20;;;;;;;4.84;100.00;97087.06;4934673;28;20565;-74
2022/11/27 10:46:26;;;;;;;0.10;0.10;;;;;;;4.99;100.00;97087.75;4876765;28;20046;-75
2022/11/27 10:49:12;;;;;;;0.20;0.20;;;;;;;4.85;100.00;97083.38;4891899;28;20853;-74
2022/11/27 10:51:58;;;;;;;0.10;0.10;;;;;;;4.87;100.00;97068.91;4876353;28;20700;-73
2022/11/27 10:54:49;;;;;;;0.10;0.10;;;;;;;5.01;100.00;97075.09;4890669;28;20631;-74
2022/11/27 10:58:09;;;;;;;0.20;0.20;;;;;;;5.00;100.00;97076.09;4886045;28;20619;-75
2022/11/27 11:01:05;;;;;;;0.10;0.10;;;;;;;4.82;100.00;97071.31;4870610;28;20047;-74
2022/11/27 11:04:07;;;;;;;0.17;0.17;;;;;;;4.73;100.00;97067.19;4918999;28;20586;-73
2022/11/27 11:06:53;;;;;;;0.10;0.10;;;;;;;4.75;100.00;97092.53;4937565;28;20039;-73
2022/11/27 11:09:46;;;;;;;0.10;0.10;;;;;;;4.84;100.00;97090.53;4936423;28;20039;-75
2022/11/27 11:12:32;;;;;;;0.20;0.20;;;;;;;4.86;100.00;97098.28;4921428;28;20122;-74
2022/11/27 11:15:18;;;;;;;0.20;0.20;;;;;;;4.98;100.00;97084.28;4936649;28;20046;-70
2022/11/27 11:18:33;;;;;;;0.20;0.20;;;;;;;5.18;100.00;97084.34;4937933;28;20298;-71
2022/11/27 11:21:29;;;;;;;0.20;0.20;;;;;;;5.07;100.00;97068.19;4939744;28;20070;-74
2022/11/27 11:24:29;;;;;;;0.20;0.20;;;;;;;5.16;100.00;97057.19;4929862;28;20053;-75
2022/11/27 11:27:22;;;;;;;0.20;0.20;;;;;;;5.07;100.00;97058.38;4920102;28;20577;-71
2022/11/27 11:30:28;;;;;;;0.13;0.13;;;;;;;5.22;100.00;97072.31;4933901;28;20149;-72
2022/11/27 11:33:19;;;;;;;0.10;0.10;;;;;;;5.42;100.00;97055.59;4930701;28;20232;-76
2022/11/27 11:36:10;;;;;;;0.20;0.20;;;;;;;5.48;100.00;97047.66;4935657;28;20471;-73
2022/11/27 11:38:56;;;;;;;0.15;0.15;;;;;;;5.33;100.00;97039.06;4915603;28;20173;-72
2022/11/27 11:41:44;;;;;;;0.20;0.20;;;;;;;5.55;100.00;97045.84;4936188;28;20331;-76
2022/11/27 11:44:35;;;;;;;0.20;0.20;;;;;;;6.56;100.00;97036.81;4909787;28;20699;-72
2022/11/27 11:47:23;;;;;;;0.25;0.25;;;;;;;8.08;100.00;97025.28;4894919;28;20499;-74
2022/11/27 11:50:13;;;;;;;0.22;0.22;;;;;;;8.65;100.00;97010.78;4914836;28;20039;-74
2022/11/27 11:53:21;;;;;;;0.20;0.20;;;;;;;8.26;100.00;97016.50;4914915;28;20981;-76
2022/11/27 11:56:25;;;;;;;0.20;0.20;;;;;;;9.07;100.00;97008.22;4944503;28;20368;-73
2022/11/27 11:59:19;;;;;;;0.25;0.25;;;;;;;10.98;100.00;97005.28;4955887;28;20135;-75
2022/11/27 12:02:46;;;;;;;0.30;0.30;;;;;;;11.71;100.00;97001.81;4959285;28;20058;-74
2022/11/27 12:05:40;;;;;;;0.30;0.30;;;;;;;10.66;100.00;97011.06;4944561;28;20065;-73
2022/11/27 12:08:58;;;;;;;0.20;0.20;;;;;;;11.62;100.00;97003.25;4946087;28;20145;-71
2022/11/27 12:11:51;;;;;;;0.20;0.20;;;;;;;11.12;100.00;96982.50;4915545;28;20054;-73
2022/11/27 12:14:41;;;;;;;0.10;0.10;;;;;;;9.03;100.00;96993.72;4957279;28;20066;-73
2022/11/27 12:17:55;;;;;;;0.10;0.10;;;;;;;7.67;100.00;96997.31;4956810;28;20214;-75
2022/11/27 12:20:55;;;;;;;0.10;0.10;;;;;;;6.61;100.00;96979.28;4954467;28;20458;-74
2022/11/27 12:23:42;;;;;;;0.10;0.10;;;;;;;6.61;100.00;96981.13;4956883;28;20121;-75
2022/11/27 12:26:49;;;;;;;0.10;0.10;;;;;;;6.40;100.00;96980.41;4956828;28;20592;-72
2022/11/27 12:29:57;;;;;;;0.10;0.10;;;;;;;6.65;100.00;96988.50;4955249;28;20396;-72
2022/11/27 12:32:52;;;;;;;0.20;0.20;;;;;;;6.65;100.00;96977.03;4956864;28;20781;-74
2022/11/27 12:36:00;;;;;;;0.17;0.17;;;;;;;6.83;100.00;96963.03;4955271;28;20049;-72
2022/11/27 12:39:29;;;;;;;0.10;0.10;;;;;;;6.26;100.00;96964.69;4954558;28;20414;-71
2022/11/27 12:42:24;;;;;;;0.10;0.10;;;;;;;6.04;100.00;96958.81;4889537;28;20050;-74
2022/11/27 12:45:35;;;;;;;0.10;0.10;;;;;;;5.97;100.00;96968.63;4947618;28;20043;-73
2022/11/27 12:48:39;;;;;;;0.20;0.20;;;;;;;5.72;100.00;96973.75;4947523;28;20050;-75
2022/11/27 12:51:36;;;;;;;0.10;0.10;;;;;;;5.66;100.00;96962.09;4959429;28;20126;-74
2022/11/27 12:54:30;;;;;;;0.10;0.10;;;;;;;5.46;100.00;96948.84;4957418;28;20042;-75
2022/11/27 12:57:25;;;;;;;0.10;0.10;;;;;;;5.63;100.00;96937.81;4959179;28;20173;-75
2022/11/27 13:00:20;;;;;;;0.17;0.17;;;;;;;5.43;100.00;96930.66;4956797;28;20446;-74
2022/11/27 13:03:39;;;;;;;0.20;0.20;;;;;;;5.62;100.00;96934.34;4956133;28;20046;-75
2022/11/27 13:06:30;;;;;;;0.20;0.20;;;;;;;5.53;100.00;96936.38;4957570;28;20502;-73
2022/11/27 13:09:24;;;;;;;0.17;0.17;;;;;;;5.54;100.00;96921.28;4952832;28;20551;-75
2022/11/27 13:12:19;;;;;;;0.10;0.10;;;;;;;5.48;100.00;96924.75;4958361;28;20122;-73
2022/11/27 13:15:25;;;;;;;0.20;0.13;;;;;;;5.44;100.00;96908.38;4956490;28;20042;-75
2022/11/27 13:18:30;;;;;;;0.10;0.10;;;;;;;5.43;100.00;96908.59;4958526;28;20047;-73
2022/11/27 13:21:26;;;;;;;0.10;0.10;;;;;;;5.24;100.00;96892.50;4958430;28;20148;-75
2022/11/27 13:24:15;;;;;;;0.10;0.10;;;;;;;5.16;100.00;96892.69;4956351;28;20042;-72
2022/11/27 13:27:08;;;;;;;0.10;0.10;;;;;;;5.19;100.00;96879.00;4956668;28;20101;-77